Paganini — V2CL8 — position and weather

sailwx.info

Track history (hours):
 
Tides and Currents Weather Stations Pressure Air Temp Water Temp Dewpoint Dewpoint Depression Visibility Wind Speed Wind Dir Waves Ship Positions

Paganini

Last reported at 2015-Sep-03 13:25 UTC. Time now 2015-Sep-03 23:26 UTC.
Position N 37°39' E 007°59'.

Length 90 m; draft 5.2 m.

Type: Cargo ship. MMSI: 305040000.

Date/timePositionNaut miles runAvg speedWind from/ knotsBaromVisibWave heightAir tempDewpointWater temp
2015-Sep-03 13:25N 37°39' E 007°59'12 8.9
2015-Sep-03 12:05N 37°39' E 008°15'5 8.8
2015-Sep-03 11:28N 37°38' E 008°21'139 8.5
2015-Sep-02 19:11N 37°25' E 011°16'5 8.5
2015-Sep-02 18:33N 37°23' E 011°22'9 9.1
2015-Sep-02 17:33N 37°19' E 011°32'10 9.3
2015-Sep-02 16:30N 37°14' E 011°43'8 8.8
2015-Sep-02 15:33N 37°10' E 011°52'9 8.7
2015-Sep-02 14:30N 37°05' E 012°02'8 8.4
2015-Sep-02 13:33N 37°02' E 012°11'8 8.1
2015-Sep-02 12:33N 36°58' E 012°20'9 8.6
2015-Sep-02 11:34N 36°54' E 012°29'9 8.5
2015-Sep-02 10:33N 36°50' E 012°38'8 8.4
2015-Sep-02 09:33N 36°46' E 012°48'8 8.5
2015-Sep-02 08:33N 36°42' E 012°57'10 8.3
2015-Sep-02 07:23N 36°37' E 013°08'7 8.1
2015-Sep-02 06:33N 36°34' E 013°15'8 8.0
2015-Sep-02 05:33N 36°30' E 013°24'8 8.1
2015-Sep-02 04:33N 36°26' E 013°33'8 8.0
2015-Sep-02 03:33N 36°22' E 013°41'8 8.1
2015-Sep-02 02:33N 36°18' E 013°50'8 8.4
2015-Sep-02 01:33N 36°14' E 013°59'9 8.6
2015-Sep-02 00:33N 36°10' E 014°09'9 8.8
2015-Sep-01 23:33N 36°06' E 014°18'9 9.0
2015-Sep-01 22:33N 36°02' E 014°28'9 8.7
2015-Sep-01 21:33N 35°55' E 014°35'6 5.4
2015-Sep-01 20:31N 35°50' E 014°36'0 0.0
2015-Sep-01 18:19N 35°50' E 014°36'0 0.0
2015-Sep-01 16:33N 35°50' E 014°36'1010.4
2015-Sep-01 15:34N 35°53' E 014°48'3 0.3
2015-Sep-01 04:21N 35°54' E 014°52'0 0.0
2015-Sep-01 03:33N 35°54' E 014°52'0 0.0
2015-Sep-01 02:33N 35°54' E 014°52'  
2015-Aug-29 07:06N 37°36' E 024°07'  
Track history (hours):
 
Tides and Currents Weather Stations Pressure Air Temp Water Temp Dewpoint Dewpoint Depression Visibility Wind Speed Wind Dir Waves Ship Positions

Paganini

Last reported at 2015-Sep-03 13:25 UTC. Time now 2015-Sep-03 23:26 UTC.
Position N 37°39' E 007°59'.

Length 90 m; draft 5.2 m.

Type: Cargo ship. MMSI: 305040000.

Date/timePositionNaut miles runAvg speedWind from/ knotsBaromVisibWave heightAir tempDewpointWater temp
2015-Sep-03 13:25N 37°39' E 007°59'12 8.9
2015-Sep-03 12:05N 37°39' E 008°15'5 8.8
2015-Sep-03 11:28N 37°38' E 008°21'139 8.5
2015-Sep-02 19:11N 37°25' E 011°16'5 8.5
2015-Sep-02 18:33N 37°23' E 011°22'9 9.1
2015-Sep-02 17:33N 37°19' E 011°32'10 9.3
2015-Sep-02 16:30N 37°14' E 011°43'8 8.8
2015-Sep-02 15:33N 37°10' E 011°52'9 8.7
2015-Sep-02 14:30N 37°05' E 012°02'8 8.4
2015-Sep-02 13:33N 37°02' E 012°11'8 8.1
2015-Sep-02 12:33N 36°58' E 012°20'9 8.6
2015-Sep-02 11:34N 36°54' E 012°29'9 8.5
2015-Sep-02 10:33N 36°50' E 012°38'8 8.4
2015-Sep-02 09:33N 36°46' E 012°48'8 8.5
2015-Sep-02 08:33N 36°42' E 012°57'10 8.3
2015-Sep-02 07:23N 36°37' E 013°08'7 8.1
2015-Sep-02 06:33N 36°34' E 013°15'8 8.0
2015-Sep-02 05:33N 36°30' E 013°24'8 8.1
2015-Sep-02 04:33N 36°26' E 013°33'8 8.0
2015-Sep-02 03:33N 36°22' E 013°41'8 8.1
2015-Sep-02 02:33N 36°18' E 013°50'8 8.4
2015-Sep-02 01:33N 36°14' E 013°59'9 8.6
2015-Sep-02 00:33N 36°10' E 014°09'9 8.8
2015-Sep-01 23:33N 36°06' E 014°18'9 9.0
2015-Sep-01 22:33N 36°02' E 014°28'9 8.7
2015-Sep-01 21:33N 35°55' E 014°35'6 5.4
2015-Sep-01 20:31N 35°50' E 014°36'0 0.0
2015-Sep-01 18:19N 35°50' E 014°36'0 0.0
2015-Sep-01 16:33N 35°50' E 014°36'1010.4
2015-Sep-01 15:34N 35°53' E 014°48'3 0.3
2015-Sep-01 04:21N 35°54' E 014°52'0 0.0
2015-Sep-01 03:33N 35°54' E 014°52'0 0.0
2015-Sep-01 02:33N 35°54' E 014°52'  
2015-Aug-29 07:06N 37°36' E 024°07'  

Dump ship's entire track history